Time;durP1;ratioP1;P1;durP2;ratioP2;P2;SDS_P1;SDS_P2;PMS_P1;PMS_P2;Temp;Humidity;BMP_temperature;BMP_pressure;BME280_temperature;BME280_humidity;BME280_pressure;Samples;Min_cycle;Max_cycle;Signal;HPM_P1;HPM_P2
2024/03/27 05:57:25;;;;;;;16.70;12.70;;;;;;;5.53;100.00;100114.91;109422;1276;22590;-47
2024/03/27 05:59:53;;;;;;;14.00;10.60;;;;;;;5.58;100.00;100117.42;108077;1257;22515;-48
2024/03/27 06:02:21;;;;;;;21.00;11.50;;;;;;;5.66;100.00;100115.65;107306;1276;22536;-47
2024/03/27 06:04:48;;;;;;;17.50;12.30;;;;;;;5.71;100.00;100114.02;109473;1276;22895;-52
2024/03/27 06:07:16;;;;;;;12.50;9.50;;;;;;;5.77;100.00;100117.91;110162;1277;22226;-52
2024/03/27 06:09:43;;;;;;;17.00;11.90;;;;;;;5.83;100.00;100120.79;110239;1276;23493;-46
2024/03/27 06:12:11;;;;;;;13.20;9.80;;;;;;;5.88;100.00;100117.93;110144;1276;22207;-53
2024/03/27 06:14:39;;;;;;;13.90;10.60;;;;;;;5.94;100.00;100123.76;110174;1276;23022;-51
2024/03/27 06:17:06;;;;;;;14.10;11.40;;;;;;;5.99;100.00;100121.77;110161;1276;22353;-52
2024/03/27 06:19:33;;;;;;;13.70;10.40;;;;;;;6.09;100.00;100121.06;110187;1276;22303;-52
2024/03/27 06:22:01;;;;;;;16.60;10.20;;;;;;;6.21;100.00;100120.88;110164;1276;22291;-46
2024/03/27 06:24:28;;;;;;;12.50;10.20;;;;;;;6.34;100.00;100127.14;110190;1276;23016;-46
2024/03/27 06:26:55;;;;;;;17.50;10.30;;;;;;;6.47;100.00;100126.46;110162;1276;22348;-52
2024/03/27 06:29:24;;;;;;;12.00;9.70;;;;;;;6.60;100.00;100125.77;110153;1276;22214;-52
2024/03/27 06:31:51;;;;;;;11.60;9.70;;;;;;;6.73;100.00;100129.40;110175;1276;22687;-46
2024/03/27 06:34:19;;;;;;;11.60;9.80;;;;;;;6.84;100.00;100130.77;110175;1261;22305;-52
2024/03/27 06:36:46;;;;;;;12.90;9.80;;;;;;;6.91;100.00;100135.52;110139;1276;22311;-52
2024/03/27 06:39:14;;;;;;;13.00;10.00;;;;;;;6.95;100.00;100141.64;110083;1276;22338;-46
2024/03/27 06:41:42;;;;;;;15.10;10.40;;;;;;;6.97;100.00;100144.63;110077;1276;22338;-47
2024/03/27 06:44:10;;;;;;;12.30;9.80;;;;;;;6.92;100.00;100145.61;110093;1276;23416;-46
2024/03/27 06:46:37;;;;;;;13.20;9.60;;;;;;;6.90;100.00;100149.91;110100;1276;22364;-46
2024/03/27 06:49:31;;;;;;;12.90;9.70;;;;;;;6.91;100.00;100149.57;110147;1276;22311;-46
2024/03/27 06:51:59;;;;;;;12.50;10.60;;;;;;;6.95;100.00;100151.19;110109;1259;22172;-52
2024/03/27 06:54:27;;;;;;;16.80;9.40;;;;;;;6.99;100.00;100151.06;110061;1263;22271;-46
2024/03/27 06:56:54;;;;;;;16.30;9.10;;;;;;;7.02;100.00;100146.08;110075;1276;22227;-52
2024/03/27 06:59:21;;;;;;;14.70;9.10;;;;;;;6.99;100.00;100143.94;110107;1276;22197;-52
2024/03/27 07:01:49;;;;;;;16.00;11.00;;;;;;;6.94;100.00;100143.71;110118;1276;22391;-52
2024/03/27 07:04:16;;;;;;;12.80;9.80;;;;;;;6.93;100.00;100143.18;108832;1276;22293;-52
2024/03/27 07:06:43;;;;;;;12.10;9.10;;;;;;;6.94;100.00;100143.01;110072;1277;22261;-46
2024/03/27 07:09:11;;;;;;;12.60;10.60;;;;;;;6.98;100.00;100141.34;110075;1276;22174;-45
2024/03/27 07:11:39;;;;;;;16.50;10.40;;;;;;;7.01;100.00;100145.36;110143;1255;22283;-53
2024/03/27 07:14:06;;;;;;;13.20;9.70;;;;;;;7.07;100.00;100148.04;110079;1277;23218;-52
2024/03/27 07:16:33;;;;;;;12.10;9.20;;;;;;;7.09;100.00;100150.84;110129;1272;22270;-46
2024/03/27 07:19:01;;;;;;;12.90;9.70;;;;;;;7.16;100.00;100150.57;110077;1276;22426;-52
2024/03/27 07:21:28;;;;;;;13.70;10.10;;;;;;;7.26;100.00;100155.18;110081;1277;22289;-45
2024/03/27 07:23:55;;;;;;;18.70;9.40;;;;;;;7.36;100.00;100157.20;110255;1276;22988;-47
2024/03/27 07:26:23;;;;;;;16.20;9.00;;;;;;;7.39;100.00;100160.20;110131;1276;22312;-51
2024/03/27 07:28:54;;;;;;;11.60;8.90;;;;;;;7.33;100.00;100164.29;110114;1276;22271;-51
2024/03/27 07:31:22;;;;;;;12.20;9.10;;;;;;;7.23;100.00;100165.75;110170;1276;22299;-51
2024/03/27 07:33:49;;;;;;;13.00;9.90;;;;;;;7.16;100.00;100163.58;110167;1276;23159;-51
2024/03/27 07:36:17;;;;;;;13.60;10.30;;;;;;;7.12;100.00;100162.49;110120;1276;22356;-45
2024/03/27 07:38:44;;;;;;;13.50;10.00;;;;;;;7.06;100.00;100161.20;110127;1276;22226;-51
2024/03/27 07:41:11;;;;;;;14.90;10.20;;;;;;;6.99;100.00;100162.33;110167;1276;22751;-46
2024/03/27 07:43:39;;;;;;;13.20;10.30;;;;;;;6.95;100.00;100159.67;110101;1276;22924;-54
2024/03/27 07:46:07;;;;;;;13.40;10.70;;;;;;;7.00;100.00;100160.78;110110;1273;22919;-46
2024/03/27 07:48:34;;;;;;;13.40;10.00;;;;;;;7.08;100.00;100162.09;110046;1276;23353;-46
2024/03/27 07:51:02;;;;;;;16.20;11.10;;;;;;;7.14;100.00;100158.53;110041;1276;22291;-52
2024/03/27 07:53:30;;;;;;;12.90;10.40;;;;;;;7.20;100.00;100157.38;110032;1272;22312;-45
2024/03/27 07:55:58;;;;;;;11.90;9.20;;;;;;;7.27;100.00;100155.90;110045;1276;22640;-52
2024/03/27 07:58:25;;;;;;;15.40;10.40;;;;;;;7.33;100.00;100154.23;109949;1276;22802;-52
2024/03/27 08:00:53;;;;;;;13.50;10.60;;;;;;;7.34;100.00;100153.54;110055;1276;22981;-52
2024/03/27 08:03:22;;;;;;;12.50;9.50;;;;;;;7.32;100.00;100152.83;110017;1276;22303;-46
2024/03/27 08:05:49;;;;;;;15.20;10.20;;;;;;;7.30;100.00;100153.48;109999;1270;22377;-44
2024/03/27 08:08:17;;;;;;;14.80;10.20;;;;;;;7.35;100.00;100148.52;110031;1272;22295;-46
2024/03/27 08:10:44;;;;;;;13.80;10.00;;;;;;;7.48;100.00;100142.23;110048;1276;22445;-53
2024/03/27 08:13:12;;;;;;;14.50;11.10;;;;;;;7.63;100.00;100138.56;109874;1276;23037;-51
2024/03/27 08:15:39;;;;;;;13.60;10.30;;;;;;;7.84;100.00;100142.04;110013;1276;22427;-51
2024/03/27 08:18:06;;;;;;;14.60;10.20;;;;;;;8.04;100.00;100139.95;109522;1276;22559;-44
2024/03/27 08:20:34;;;;;;;15.40;9.20;;;;;;;8.18;100.00;100136.06;110024;1276;23247;-51
2024/03/27 08:23:01;;;;;;;13.20;10.30;;;;;;;8.28;100.00;100132.14;110057;1276;22578;-52
2024/03/27 08:25:32;;;;;;;11.80;9.50;;;;;;;8.34;100.00;100137.06;109988;1276;22533;-44
2024/03/27 08:28:00;;;;;;;11.80;9.20;;;;;;;8.43;100.00;100140.96;109912;1276;22198;-45
2024/03/27 08:30:28;;;;;;;11.00;8.90;;;;;;;8.51;100.00;100141.88;109949;1276;22967;-51
2024/03/27 08:32:55;;;;;;;14.40;9.20;;;;;;;8.54;100.00;100143.47;109809;1276;22412;-54
2024/03/27 08:35:24;;;;;;;12.00;8.90;;;;;;;8.50;100.00;100145.69;109890;1276;22509;-45
2024/03/27 08:37:51;;;;;;;13.60;9.80;;;;;;;8.49;100.00;100149.86;110023;1270;22480;-52
2024/03/27 08:40:34;;;;;;;14.10;9.90;;;;;;;8.54;100.00;100143.64;110107;1273;22232;-52
2024/03/27 08:43:03;;;;;;;10.90;8.90;;;;;;;8.60;100.00;100147.15;109965;1272;22955;-52
2024/03/27 08:45:30;;;;;;;12.90;8.80;;;;;;;8.69;100.00;100148.93;110077;1275;23108;-53
2024/03/27 08:47:58;;;;;;;12.50;9.50;;;;;;;8.80;100.00;100146.55;110095;1276;22251;-52
2024/03/27 08:50:27;;;;;;;11.10;8.60;;;;;;;8.91;100.00;100144.52;110069;1276;22415;-46
2024/03/27 08:52:54;;;;;;;12.80;9.90;;;;;;;8.96;100.00;100143.50;110041;1273;22278;-47
2024/03/27 08:55:22;;;;;;;15.70;10.80;;;;;;;8.99;99.93;100144.55;109976;1271;22274;-52
2024/03/27 08:57:49;;;;;;;13.10;9.90;;;;;;;9.04;99.82;100141.27;110002;1276;22204;-52
2024/03/27 09:00:17;;;;;;;13.00;9.70;;;;;;;9.09;98.89;100145.79;110022;1277;22353;-51
2024/03/27 09:02:48;;;;;;;12.60;9.60;;;;;;;9.04;97.97;100145.10;110000;1278;23066;-53
2024/03/27 09:05:17;;;;;;;16.20;10.30;;;;;;;9.01;98.43;100144.73;109843;1277;22435;-53
2024/03/27 09:07:45;;;;;;;12.10;9.70;;;;;;;9.07;98.32;100146.33;109889;1277;22348;-55
2024/03/27 09:10:13;;;;;;;14.10;11.00;;;;;;;9.07;98.03;100148.77;109782;1277;22287;-53
2024/03/27 09:12:40;;;;;;;13.20;10.20;;;;;;;9.06;97.31;100153.27;109981;1277;22412;-45
2024/03/27 09:15:08;;;;;;;12.80;9.60;;;;;;;9.00;96.67;100154.98;110005;1277;23347;-52
2024/03/27 09:17:35;;;;;;;13.70;10.30;;;;;;;8.95;97.52;100154.45;109949;1277;22233;-52
2024/03/27 09:20:03;;;;;;;17.10;10.40;;;;;;;9.02;97.51;100151.70;110091;1277;22349;-53
2024/03/27 09:22:34;;;;;;;12.20;9.80;;;;;;;9.15;97.33;100150.70;110096;1277;22975;-52
2024/03/27 09:25:05;;;;;;;16.20;10.50;;;;;;;9.28;97.06;100144.13;110087;1270;22289;-52
2024/03/27 09:27:33;;;;;;;14.30;11.20;;;;;;;9.37;96.46;100143.46;109977;1273;23165;-53
2024/03/27 09:30:01;;;;;;;12.80;10.40;;;;;;;9.39;95.62;100143.29;109954;1275;22527;-53
2024/03/27 09:32:30;;;;;;;14.50;10.60;;;;;;;9.32;95.28;100149.89;109834;1277;22420;-46
2024/03/27 09:34:58;;;;;;;19.50;10.60;;;;;;;9.28;96.06;100151.45;109798;1277;23132;-46
2024/03/27 09:37:28;;;;;;;15.20;11.20;;;;;;;9.25;96.54;100156.30;109631;1277;23066;-50
2024/03/27 09:39:56;;;;;;;17.30;11.00;;;;;;;9.27;96.68;100151.27;109537;1272;24231;-53
2024/03/27 09:42:24;;;;;;;16.30;10.90;;;;;;;9.37;96.02;100148.33;109401;1277;22294;-53
2024/03/27 09:44:52;;;;;;;13.10;10.20;;;;;;;9.43;94.85;100147.81;110000;1278;22870;-45
2024/03/27 09:47:20;;;;;;;16.20;11.50;;;;;;;9.44;94.48;100147.64;108776;1277;22248;-53
2024/03/27 09:49:49;;;;;;;18.20;11.80;;;;;;;9.45;94.54;100143.98;109423;1275;22294;-53
2024/03/27 09:52:17;;;;;;;26.70;18.50;;;;;;;9.45;94.70;100141.55;109986;1278;22147;-52
2024/03/27 09:54:44;;;;;;;24.30;17.10;;;;;;;9.50;94.63;100140.02;109922;1270;22439;-52
2024/03/27 09:57:12;;;;;;;22.60;15.20;;;;;;;9.65;95.01;100138.63;110020;1254;23185;-46
2024/03/27 09:59:44;;;;;;;21.80;14.40;;;;;;;9.77;94.54;100135.50;110031;1276;22867;-46
2024/03/27 10:02:12;;;;;;;40.70;22.20;;;;;;;9.85;93.20;100133.60;109996;1276;22853;-46
2024/03/27 10:04:39;;;;;;;35.90;24.20;;;;;;;9.90;92.80;100131.51;109976;1276;22120;-46
2024/03/27 10:07:07;;;;;;;38.50;24.00;;;;;;;10.00;92.68;100126.28;109574;1276;190257;-52
2024/03/27 10:09:35;;;;;;;34.70;22.50;;;;;;;10.10;91.78;100124.70;109436;1276;22493;-52
2024/03/27 10:12:04;;;;;;;35.90;22.90;;;;;;;10.19;92.08;100119.48;109670;1272;22289;-52
2024/03/27 10:14:32;;;;;;;33.70;23.10;;;;;;;10.42;91.98;100122.42;109508;1270;22673;-46
2024/03/27 10:17:00;;;;;;;38.30;24.60;;;;;;;10.57;90.88;100122.39;109982;1276;22517;-45
2024/03/27 10:19:27;;;;;;;39.40;27.80;;;;;;;10.68;89.78;100119.21;110018;1276;22263;-45
2024/03/27 10:31:48;;;;;;;35.20;23.40;;;;;;;11.39;85.71;100115.22;108283;1276;24154;-46
2024/03/27 10:34:16;;;;;;;40.60;26.20;;;;;;;11.29;86.32;100115.63;107667;1275;25256;-45
2024/03/27 10:36:44;;;;;;;43.50;28.60;;;;;;;11.21;85.74;100116.38;109299;1276;22282;-46
2024/03/27 10:39:16;;;;;;;40.70;26.00;;;;;;;11.18;86.98;100117.42;110152;1276;22429;-54
2024/03/27 10:41:44;;;;;;;40.30;26.00;;;;;;;11.34;87.13;100114.91;109970;1276;22299;-45
2024/03/27 10:44:12;;;;;;;40.70;26.20;;;;;;;11.60;86.90;100110.36;110016;1277;23089;-46
2024/03/27 10:46:39;;;;;;;33.50;23.50;;;;;;;12.14;86.25;100099.64;109934;1276;22405;-45
2024/03/27 10:49:07;;;;;;;34.90;23.40;;;;;;;12.66;84.08;100091.23;110047;1278;22297;-46
2024/03/27 10:51:35;;;;;;;30.00;20.90;;;;;;;12.96;83.63;100089.63;109898;1277;22439;-47
2024/03/27 10:54:02;;;;;;;32.20;21.60;;;;;;;13.13;81.15;100089.23;110042;1276;22832;-46
2024/03/27 10:56:29;;;;;;;30.30;22.50;;;;;;;13.06;80.13;100088.45;109853;1276;22872;-46
2024/03/27 10:58:57;;;;;;;30.30;21.20;;;;;;;12.98;80.09;100088.02;110108;1276;22360;-52
2024/03/27 11:01:24;;;;;;;29.80;19.00;;;;;;;13.00;80.49;100089.39;110044;1276;22263;-51
2024/03/27 11:03:52;;;;;;;26.10;18.50;;;;;;;13.05;80.06;100088.28;109837;1275;22305;-54
2024/03/27 11:06:19;;;;;;;27.80;19.20;;;;;;;13.16;79.86;100087.43;109999;1277;22157;-46
2024/03/27 11:08:47;;;;;;;25.20;18.40;;;;;;;13.38;79.19;100088.02;109905;1277;22713;-53
2024/03/27 11:11:14;;;;;;;24.50;17.60;;;;;;;13.95;77.58;100084.30;110014;1276;22244;-52
2024/03/27 11:13:45;;;;;;;21.80;16.20;;;;;;;14.59;76.03;100080.16;109977;1277;22317;-53
2024/03/27 11:16:13;;;;;;;21.80;16.00;;;;;;;15.10;72.61;100077.36;109976;1268;22329;-52
2024/03/27 11:18:45;;;;;;;28.60;16.00;;;;;;;15.51;72.75;100066.24;110103;1276;22414;-53
2024/03/27 11:21:13;;;;;;;17.10;12.10;;;;;;;16.10;70.26;100062.66;110071;1277;22194;-53
2024/03/27 11:23:42;;;;;;;20.50;13.80;;;;;;;16.59;66.85;100061.15;110033;1270;22497;-46
2024/03/27 11:26:09;;;;;;;14.10;10.70;;;;;;;16.66;66.41;100059.56;109580;1276;22303;-44
2024/03/27 11:28:37;;;;;;;15.20;11.80;;;;;;;16.46;64.14;100059.59;110012;1277;22219;-45
2024/03/27 11:31:04;;;;;;;19.00;11.60;;;;;;;16.14;63.82;100055.72;110074;1276;22286;-45
2024/03/27 11:33:32;;;;;;;23.50;13.80;;;;;;;15.97;62.71;100049.64;109902;1276;22294;-46
2024/03/27 11:35:59;;;;;;;13.20;9.40;;;;;;;16.04;62.76;100052.62;109902;1275;22312;-51
2024/03/27 11:42:47;;;;;;;15.40;9.20;;;;;;;15.57;63.61;100046.22;107183;1277;24188;-53
2024/03/27 11:45:14;;;;;;;13.40;8.70;;;;;;;15.44;63.28;100042.16;107043;1277;22753;-46
2024/03/27 11:47:44;;;;;;;10.90;9.10;;;;;;;15.19;63.68;100042.75;108138;1276;22534;-46
2024/03/27 11:50:11;;;;;;;9.80;7.80;;;;;;;14.81;64.40;100042.69;107277;1276;24175;-49
2024/03/27 11:52:39;;;;;;;10.50;8.30;;;;;;;14.54;65.15;100043.07;107201;1262;24183;-47
2024/03/27 11:55:07;;;;;;;11.90;8.50;;;;;;;14.30;65.58;100039.13;108190;1276;22427;-53
2024/03/27 11:57:34;;;;;;;8.90;7.60;;;;;;;14.11;66.42;100033.52;110109;1276;22186;-52
2024/03/27 12:00:07;;;;;;;11.90;7.50;;;;;;;14.04;67.09;100037.52;110080;1276;22410;-52
2024/03/27 12:02:35;;;;;;;9.50;7.80;;;;;;;14.02;66.78;100034.73;108331;1276;22525;-47
2024/03/27 12:05:04;;;;;;;10.90;7.70;;;;;;;14.04;67.33;100032.07;109084;1276;22445;-46
2024/03/27 12:07:32;;;;;;;8.50;6.90;;;;;;;14.08;66.43;100032.34;110138;1276;22280;-51
2024/03/27 12:10:00;;;;;;;7.00;6.20;;;;;;;14.09;66.96;100033.21;110128;1276;22422;-45
2024/03/27 12:12:29;;;;;;;9.90;6.80;;;;;;;14.10;68.23;100027.94;110158;1276;22865;-45
2024/03/27 12:14:56;;;;;;;10.40;7.70;;;;;;;14.08;68.34;100031.83;110111;1276;22434;-45
2024/03/27 12:17:31;;;;;;;12.80;7.60;;;;;;;13.86;67.18;100031.17;110131;1276;22266;-53
2024/03/27 12:20:05;;;;;;;9.40;7.30;;;;;;;13.44;68.76;100030.30;109681;1276;25262;-53
2024/03/27 12:22:40;;;;;;;11.00;7.10;;;;;;;12.98;70.20;100036.91;110017;1276;22361;-46
2024/03/27 12:25:08;;;;;;;8.20;6.50;;;;;;;12.64;71.43;100037.00;110109;1276;22294;-51
2024/03/27 12:27:37;;;;;;;9.10;7.30;;;;;;;12.36;73.16;100034.20;110066;1276;23045;-52
2024/03/27 12:30:06;;;;;;;8.70;6.70;;;;;;;12.13;74.83;100042.13;110092;1276;23571;-46
2024/03/27 12:32:34;;;;;;;11.30;6.60;;;;;;;11.97;76.36;100041.94;110043;1276;23179;-53
2024/03/27 12:35:02;;;;;;;8.20;5.90;;;;;;;11.85;77.47;100043.45;109982;1278;23196;-46
2024/03/27 12:37:31;;;;;;;5.50;4.90;;;;;;;11.75;77.86;100044.03;110037;1277;22202;-45
2024/03/27 12:39:58;;;;;;;10.00;7.50;;;;;;;11.65;78.26;100047.27;110031;1278;22167;-47
2024/03/27 12:42:26;;;;;;;7.40;5.50;;;;;;;11.52;78.42;100042.31;109994;1277;22210;-44
2024/03/27 12:44:53;;;;;;;8.80;6.40;;;;;;;11.39;78.50;100041.88;110002;1278;22483;-51
2024/03/27 12:47:21;;;;;;;11.20;6.90;;;;;;;11.26;79.62;100035.15;109971;1278;22362;-52
2024/03/27 12:49:48;;;;;;;6.20;4.90;;;;;;;11.21;80.44;100030.48;110039;1278;22200;-52
2024/03/27 12:52:17;;;;;;;6.10;4.90;;;;;;;11.23;79.81;100031.51;109921;1278;22301;-52
2024/03/27 12:54:44;;;;;;;6.80;4.30;;;;;;;11.30;79.32;100027.45;109974;1270;22982;-52
2024/03/27 12:57:12;;;;;;;4.80;3.70;;;;;;;11.36;78.78;100028.27;110023;1278;22242;-47
2024/03/27 12:59:39;;;;;;;9.80;4.30;;;;;;;11.39;78.28;100028.25;110084;1273;23012;-46
2024/03/27 13:02:09;;;;;;;4.60;4.10;;;;;;;11.35;78.71;100031.78;109910;1273;22780;-47
2024/03/27 13:04:36;;;;;;;5.80;5.00;;;;;;;11.24;78.46;100030.98;110053;1278;23098;-46
2024/03/27 13:07:04;;;;;;;6.80;5.30;;;;;;;11.07;79.80;100030.21;109613;1276;22615;-47
2024/03/27 13:09:35;;;;;;;6.20;5.30;;;;;;;10.94;80.96;100031.17;107362;1278;24243;-47
2024/03/27 13:12:03;;;;;;;7.20;5.60;;;;;;;10.80;79.60;100029.52;109743;1270;23395;-46
2024/03/27 13:14:30;;;;;;;6.60;5.40;;;;;;;10.69;81.02;100032.88;109865;1278;22497;-46
2024/03/27 13:16:58;;;;;;;6.10;4.90;;;;;;;10.61;82.03;100029.77;110049;1278;23077;-46
2024/03/27 13:19:25;;;;;;;9.00;6.30;;;;;;;10.53;83.28;100026.48;110047;1278;22173;-47
2024/03/27 13:21:53;;;;;;;9.10;6.20;;;;;;;10.48;84.55;100027.20;110010;1276;22271;-44
2024/03/27 13:24:20;;;;;;;8.40;6.00;;;;;;;10.41;84.88;100030.19;109938;1278;23108;-45
2024/03/27 13:26:48;;;;;;;7.20;4.90;;;;;;;10.32;84.70;100027.09;109957;1270;22474;-53
2024/03/27 13:29:15;;;;;;;5.60;4.50;;;;;;;10.25;83.95;100031.46;110040;1278;22842;-51
2024/03/27 13:31:43;;;;;;;5.80;4.60;;;;;;;10.20;84.31;100026.91;110052;1277;22273;-47
2024/03/27 13:34:11;;;;;;;8.80;5.20;;;;;;;10.16;85.43;100026.58;110065;1277;22861;-45
2024/03/27 13:36:38;;;;;;;6.60;5.10;;;;;;;10.13;85.92;100027.45;110098;1278;22283;-46
2024/03/27 13:39:07;;;;;;;6.00;5.10;;;;;;;10.11;87.21;100033.57;110085;1277;22274;-52
2024/03/27 13:41:35;;;;;;;5.10;4.40;;;;;;;10.10;88.02;100040.38;110087;1277;22166;-51
2024/03/27 13:44:03;;;;;;;5.80;4.70;;;;;;;10.08;87.33;100036.36;110058;1278;22263;-51
2024/03/27 13:46:30;;;;;;;7.80;5.00;;;;;;;10.05;87.79;100032.71;110005;1278;22514;-52
2024/03/27 13:48:58;;;;;;;6.60;5.00;;;;;;;10.00;88.09;100033.23;109994;1277;22514;-45
2024/03/27 13:51:25;;;;;;;5.70;5.00;;;;;;;9.96;88.34;100034.13;109979;1278;22160;-52
2024/03/27 13:53:53;;;;;;;5.40;4.50;;;;;;;9.93;88.25;100032.20;109998;1276;22192;-52
2024/03/27 13:56:21;;;;;;;6.20;5.50;;;;;;;9.91;88.27;100031.15;110071;1278;23078;-46
2024/03/27 13:58:49;;;;;;;7.00;5.30;;;;;;;9.88;89.47;100028.38;110033;1278;22383;-46
2024/03/27 14:01:17;;;;;;;7.40;5.00;;;;;;;9.86;90.57;100021.23;110059;1277;23277;-52
2024/03/27 14:03:44;;;;;;;9.30;5.30;;;;;;;9.83;91.22;100024.38;110059;1277;22897;-46
2024/03/27 14:06:12;;;;;;;7.80;5.70;;;;;;;9.82;91.57;100024.90;109988;1273;22244;-45
2024/03/27 14:08:40;;;;;;;7.80;5.70;;;;;;;9.82;92.48;100028.73;108051;1277;22519;-53
2024/03/27 14:11:08;;;;;;;6.70;5.50;;;;;;;9.82;92.62;100025.77;107663;1277;22524;-52
2024/03/27 14:13:35;;;;;;;6.20;5.30;;;;;;;9.83;92.16;100027.52;106986;1277;22558;-46
2024/03/27 14:16:03;;;;;;;6.30;5.30;;;;;;;9.82;91.39;100024.56;107682;1278;25511;-48
2024/03/27 14:18:31;;;;;;;5.30;4.70;;;;;;;9.80;90.54;100026.13;108412;1277;22211;-53
2024/03/27 14:20:59;;;;;;;5.60;5.00;;;;;;;9.80;91.06;100023.69;109063;1278;24228;-54
2024/03/27 14:23:27;;;;;;;8.80;6.20;;;;;;;9.80;90.63;100023.34;107382;1278;24286;-47
2024/03/27 14:25:55;;;;;;;8.00;5.70;;;;;;;9.80;90.94;100019.50;108272;1278;25287;-53
2024/03/27 14:28:22;;;;;;;11.50;6.20;;;;;;;9.79;91.12;100019.50;107624;1278;25230;-47
2024/03/27 14:30:53;;;;;;;6.20;5.50;;;;;;;9.77;91.52;100020.72;110025;1278;22251;-53
2024/03/27 14:33:21;;;;;;;6.40;5.00;;;;;;;9.75;92.54;100016.90;109911;1276;22543;-46
2024/03/27 14:35:48;;;;;;;9.20;6.00;;;;;;;9.73;93.07;100016.89;108463;1276;22563;-45
2024/03/27 14:38:16;;;;;;;8.10;5.00;;;;;;;9.71;92.51;100017.95;107295;1275;22660;-53
2024/03/27 14:40:43;;;;;;;7.30;5.30;;;;;;;9.69;91.95;100020.74;107393;1278;22542;-49
2024/03/27 14:43:11;;;;;;;6.80;5.70;;;;;;;9.66;89.44;100018.64;108145;1277;22541;-45
2024/03/27 14:45:39;;;;;;;10.10;7.90;;;;;;;9.62;88.51;100018.65;108889;1276;22288;-45
2024/03/27 14:48:06;;;;;;;8.30;7.30;;;;;;;9.58;88.43;100022.84;108886;1276;22368;-52
2024/03/27 14:50:34;;;;;;;12.00;8.80;;;;;;;9.55;88.50;100024.39;110141;1276;22386;-45
2024/03/27 14:53:01;;;;;;;12.00;9.00;;;;;;;9.52;89.19;100024.23;110102;1276;22257;-45
2024/03/27 14:55:29;;;;;;;12.40;8.70;;;;;;;9.52;89.32;100029.29;110191;1276;22192;-46
2024/03/27 14:57:56;;;;;;;12.00;6.80;;;;;;;9.51;88.88;100026.84;110186;1276;22713;-52
2024/03/27 15:00:24;;;;;;;9.20;6.90;;;;;;;9.52;89.02;100033.98;110168;1276;22228;-54
2024/03/27 15:02:51;;;;;;;8.30;6.00;;;;;;;9.53;89.04;100028.23;110190;1276;22254;-52
2024/03/27 15:05:19;;;;;;;7.20;5.50;;;;;;;9.55;89.20;100028.92;110160;1276;22192;-46
2024/03/27 15:07:46;;;;;;;5.90;5.20;;;;;;;9.57;89.67;100027.36;110160;1276;22421;-46
2024/03/27 15:10:14;;;;;;;7.10;5.50;;;;;;;9.61;89.99;100031.18;109258;1277;24201;-54
2024/03/27 15:12:41;;;;;;;5.90;5.10;;;;;;;9.65;90.64;100034.49;108424;1276;22237;-53
2024/03/27 15:15:09;;;;;;;7.50;5.70;;;;;;;9.70;90.82;100031.89;107576;1276;25224;-48
2024/03/27 15:17:38;;;;;;;8.60;6.40;;;;;;;9.72;90.11;100032.23;107156;1277;24338;-53
